Time;durP1;ratioP1;P1;durP2;ratioP2;P2;SDS_P1;SDS_P2;PMS_P1;PMS_P2;Temp;Humidity;BMP_temperature;BMP_pressure;BME280_temperature;BME280_humidity;BME280_pressure;Samples;Min_cycle;Max_cycle;Signal;HPM_P1;HPM_P2
2023/05/27 00:01:20;;;;;;;4.07;1.80;;;19.50;55.10;;;;;;5015024;28;20050;-31
2023/05/27 00:03:46;;;;;;;4.10;1.85;;;19.00;73.30;;;;;;5014689;28;20133;-31
2023/05/27 00:06:13;;;;;;;3.70;1.80;;;;;;;;;;5014575;28;20145;-31
2023/05/27 00:08:40;;;;;;;3.30;2.00;;;19.50;72.80;;;;;;5014510;28;20052;-31
2023/05/27 00:11:07;;;;;;;3.67;1.80;;;19.10;73.00;;;;;;5014549;28;20050;-30
2023/05/27 00:13:34;;;;;;;4.72;2.08;;;18.60;62.30;;;;;;5014301;28;20137;-31
2023/05/27 00:16:01;;;;;;;3.88;1.77;;;19.80;73.00;;;;;;5014471;28;20057;-31
2023/05/27 00:18:32;;;;;;;3.90;2.13;;;19.40;55.10;;;;;;5014765;28;20484;-31
2023/05/27 00:20:59;;;;;;;4.90;2.10;;;19.60;56.90;;;;;;4994937;28;20047;-31
2023/05/27 00:23:26;;;;;;;3.13;2.00;;;;;;;;;;5013612;28;20136;-31
2023/05/27 00:25:53;;;;;;;4.88;2.10;;;19.70;72.90;;;;;;5014148;28;20128;-31
2023/05/27 00:28:19;;;;;;;4.00;2.05;;;19.20;73.60;;;;;;5014286;28;20060;-31
2023/05/27 00:30:46;;;;;;;2.42;1.60;;;19.90;66.10;;;;;;5014386;28;20058;-31
2023/05/27 00:33:13;;;;;;;3.80;1.80;;;20.00;73.00;;;;;;5014142;28;20136;-31
2023/05/27 00:35:41;;;;;;;2.97;1.80;;;19.70;73.00;;;;;;5014136;28;20148;-31
2023/05/27 00:38:07;;;;;;;4.75;2.00;;;18.90;73.00;;;;;;4994906;28;20133;-31
2023/05/27 00:40:34;;;;;;;3.63;1.92;;;;;;;;;;4994523;28;20129;-31
2023/05/27 00:43:01;;;;;;;3.53;1.75;;;18.90;72.60;;;;;;4994363;28;20050;-31
2023/05/27 00:45:28;;;;;;;2.80;1.73;;;19.70;73.00;;;;;;4994510;28;20125;-31
2023/05/27 00:47:55;;;;;;;3.85;1.90;;;19.40;65.50;;;;;;4994654;28;20125;-31
2023/05/27 00:50:25;;;;;;;3.08;1.60;;;19.40;73.30;;;;;;5000567;28;20057;-31
2023/05/27 00:52:55;;;;;;;5.35;1.98;;;19.80;63.60;;;;;;5013603;28;20054;-31
2023/05/27 00:55:21;;;;;;;3.92;2.10;;;19.40;73.30;;;;;;5014239;28;20057;-31
2023/05/27 00:57:48;;;;;;;2.85;1.80;;;;;;;;;;5013458;28;20487;-31
2023/05/27 01:00:15;;;;;;;3.80;1.95;;;19.20;72.60;;;;;;5013963;28;20441;-31
2023/05/27 01:02:42;;;;;;;4.03;1.92;;;19.50;73.80;;;;;;5012292;28;20045;-31
2023/05/27 01:05:09;;;;;;;3.78;1.70;;;19.50;56.30;;;;;;5013155;28;20060;-32
2023/05/27 01:07:42;;;;;;;3.67;1.85;;;20.00;73.30;;;;;;5013305;28;20089;-31
2023/05/27 01:10:13;;;;;;;4.18;1.90;;;18.70;54.70;;;;;;5013630;28;20050;-31
2023/05/27 01:12:43;;;;;;;4.78;2.20;;;18.30;72.40;;;;;;5013393;28;20134;-31
2023/05/27 01:15:10;;;;;;;3.67;1.90;;;;;;;;;;5013421;28;20046;-31
2023/05/27 01:17:42;;;;;;;3.25;1.70;;;;;;;;;;5013544;28;20042;-31
2023/05/27 01:20:11;;;;;;;4.95;1.83;;;19.40;73.00;;;;;;5012690;28;20503;-31
2023/05/27 01:22:41;;;;;;;3.88;1.90;;;19.90;57.70;;;;;;5013209;28;20081;-31
2023/05/27 01:25:08;;;;;;;4.78;2.00;;;19.30;62.10;;;;;;5013322;28;20053;-31
2023/05/27 01:27:35;;;;;;;4.13;1.98;;;18.90;72.80;;;;;;5013228;28;20574;-31
2023/05/27 01:30:02;;;;;;;3.20;1.80;;;;;;;;;;5012960;28;20132;-31
2023/05/27 01:32:31;;;;;;;3.20;1.90;;;20.10;73.90;;;;;;5012871;28;20562;-31
2023/05/27 01:35:00;;;;;;;3.03;1.90;;;19.20;55.00;;;;;;5013021;28;20092;-32
2023/05/27 01:37:26;;;;;;;4.13;2.10;;;19.30;69.20;;;;;;5012705;28;20050;-31
2023/05/27 01:39:55;;;;;;;3.08;1.75;;;19.20;55.00;;;;;;5013119;28;20145;-31
2023/05/27 01:42:22;;;;;;;3.20;1.70;;;;;;;;;;5012795;28;20049;-31
2023/05/27 01:44:48;;;;;;;3.45;1.63;;;18.20;61.50;;;;;;5012666;28;20130;-31
2023/05/27 01:47:15;;;;;;;3.15;1.83;;;18.60;57.50;;;;;;5012598;28;20547;-31
2023/05/27 01:49:42;;;;;;;3.55;1.70;;;19.00;73.70;;;;;;5013043;28;20050;-31
2023/05/27 01:52:09;;;;;;;4.07;2.00;;;;;;;;;;5012625;28;20137;-31
2023/05/27 01:54:36;;;;;;;3.30;1.80;;;19.30;73.90;;;;;;5012724;28;20411;-31
2023/05/27 01:57:06;;;;;;;3.95;1.90;;;19.40;73.50;;;;;;5012505;28;20415;-31
2023/05/27 01:59:33;;;;;;;4.00;1.80;;;;;;;;;;5012662;28;20057;-32
2023/05/27 02:02:00;;;;;;;3.67;1.75;;;19.20;73.00;;;;;;5012292;28;20046;-31
2023/05/27 02:04:26;;;;;;;4.47;2.30;;;19.90;73.50;;;;;;5012722;28;20629;-31
2023/05/27 02:06:53;;;;;;;3.15;1.80;;;18.10;61.90;;;;;;5012564;28;20128;-31
2023/05/27 02:09:20;;;;;;;4.10;1.60;;;18.80;73.20;;;;;;5012301;28;20469;-31
2023/05/27 02:11:47;;;;;;;3.95;2.00;;;;;;;;;;5012502;28;20058;-32
2023/05/27 02:14:15;;;;;;;3.15;1.90;;;18.60;72.80;;;;;;5012052;28;20050;-31
2023/05/27 02:16:43;;;;;;;3.33;1.80;;;18.00;72.40;;;;;;5012435;28;20460;-31
2023/05/27 02:19:10;;;;;;;3.90;1.75;;;19.40;68.40;;;;;;5012459;28;20057;-31
2023/05/27 02:21:37;;;;;;;4.03;1.75;;;;;;;;;;5012347;28;20478;-30
2023/05/27 02:24:04;;;;;;;3.08;1.70;;;18.70;55.10;;;;;;5012041;28;20414;-31
2023/05/27 02:26:30;;;;;;;3.42;1.73;;;19.40;73.20;;;;;;5012167;28;20054;-31
2023/05/27 02:28:57;;;;;;;4.53;2.15;;;;;;;;;;5012206;28;20064;-31
2023/05/27 02:31:26;;;;;;;3.85;2.35;;;20.00;73.50;;;;;;5012069;28;20053;-31
2023/05/27 02:33:52;;;;;;;3.67;1.95;;;18.00;60.10;;;;;;5011759;28;20101;-31
2023/05/27 02:36:22;;;;;;;3.55;1.80;;;18.10;68.90;;;;;;5011634;28;20045;-31
2023/05/27 02:38:48;;;;;;;3.03;1.52;;;19.40;73.60;;;;;;5012154;28;20077;-31
2023/05/27 02:41:15;;;;;;;3.88;1.70;;;19.10;60.10;;;;;;5012029;28;20049;-31
2023/05/27 02:43:42;;;;;;;3.58;1.90;;;;;;;;;;5011624;28;20133;-32
2023/05/27 02:46:09;;;;;;;5.20;2.17;;;19.30;73.70;;;;;;5011833;28;20582;-30
2023/05/27 02:48:37;;;;;;;2.70;1.60;;;19.30;74.20;;;;;;4994398;28;20567;-31
2023/05/27 02:51:04;;;;;;;4.50;1.80;;;19.20;73.30;;;;;;5011984;28;20050;-31
2023/05/27 02:53:31;;;;;;;4.03;1.80;;;19.50;72.70;;;;;;5011761;28;20060;-31
2023/05/27 02:55:57;;;;;;;4.00;1.70;;;18.00;72.90;;;;;;5011711;28;20085;-31
2023/05/27 02:58:24;;;;;;;3.22;1.75;;;18.00;73.10;;;;;;5012106;28;20129;-31
2023/05/27 03:00:51;;;;;;;3.28;1.85;;;18.90;64.50;;;;;;5011861;28;20421;-31
2023/05/27 03:03:18;;;;;;;3.85;1.70;;;18.50;73.80;;;;;;5011363;28;20503;-31
2023/05/27 03:05:47;;;;;;;4.85;1.83;;;20.00;57.50;;;;;;5011895;28;20064;-31
2023/05/27 03:08:13;;;;;;;3.72;1.85;;;18.90;73.10;;;;;;5011663;28;20045;-31
2023/05/27 03:10:40;;;;;;;2.78;1.80;;;17.70;61.20;;;;;;5011532;28;20052;-31
2023/05/27 03:13:07;;;;;;;3.75;1.73;;;;;;;;;;5011465;28;20137;-32
2023/05/27 03:15:35;;;;;;;2.70;1.52;;;;;;;;;;5011809;28;20077;-31
2023/05/27 03:18:03;;;;;;;4.10;1.95;;;19.40;66.90;;;;;;5011787;28;20056;-30
2023/05/27 03:20:30;;;;;;;2.95;1.70;;;19.00;70.40;;;;;;5011498;28;20053;-31
2023/05/27 03:22:58;;;;;;;2.70;1.67;;;19.00;55.00;;;;;;5011294;28;20085;-31
2023/05/27 03:25:25;;;;;;;3.47;1.73;;;;;;;;;;5011590;28;20132;-31
2023/05/27 03:27:53;;;;;;;4.30;2.38;;;;;;;;;;5015178;28;20054;-31
2023/05/27 03:30:20;;;;;;;3.10;1.60;;;;;;;;;;5015167;28;20128;-31
2023/05/27 03:32:47;;;;;;;3.88;1.75;;;18.60;73.00;;;;;;5015016;28;20419;-31
2023/05/27 03:35:14;;;;;;;3.28;1.73;;;;;;;;;;5015188;28;20046;-31
2023/05/27 03:37:41;;;;;;;3.55;1.98;;;19.50;62.50;;;;;;5014808;28;20129;-31
2023/05/27 03:40:11;;;;;;;4.05;1.70;;;19.10;54.80;;;;;;5015411;28;20132;-31
2023/05/27 03:42:37;;;;;;;2.53;1.50;;;19.70;65.80;;;;;;5015204;28;20056;-30
2023/05/27 03:45:05;;;;;;;4.15;1.92;;;19.10;54.70;;;;;;5014658;28;20133;-31
2023/05/27 03:47:34;;;;;;;3.08;1.63;;;;;;;;;;5015277;28;20402;-32
2023/05/27 03:50:01;;;;;;;3.42;1.88;;;19.70;73.60;;;;;;5014962;28;20049;-31
2023/05/27 03:52:27;;;;;;;3.78;1.73;;;19.30;73.50;;;;;;5015156;28;20231;-30
2023/05/27 03:54:55;;;;;;;4.68;1.80;;;;;;;;;;5014882;28;20054;-31
2023/05/27 03:57:23;;;;;;;2.90;1.70;;;20.10;73.00;;;;;;5014936;28;20045;-31
2023/05/27 03:59:49;;;;;;;3.90;1.95;;;19.20;73.10;;;;;;5014740;28;20050;-31
2023/05/27 04:02:16;;;;;;;2.60;1.58;;;18.80;72.40;;;;;;5014505;28;20137;-31
2023/05/27 04:04:43;;;;;;;3.17;1.70;;;18.90;67.40;;;;;;5014797;28;20443;-31
2023/05/27 04:07:09;;;;;;;3.08;1.50;;;19.00;72.40;;;;;;5014828;28;20046;-31
2023/05/27 04:09:36;;;;;;;2.40;1.50;;;19.60;73.60;;;;;;5014880;28;20136;-31
2023/05/27 04:12:03;;;;;;;3.72;1.90;;;18.10;59.50;;;;;;5014265;28;20049;-31
2023/05/27 04:14:31;;;;;;;2.78;1.60;;;18.90;72.50;;;;;;5014512;28;20136;-30
2023/05/27 04:16:58;;;;;;;2.60;1.80;;;19.30;72.70;;;;;;5014526;28;20128;-31
2023/05/27 04:19:24;;;;;;;3.45;1.77;;;19.00;73.00;;;;;;5014386;28;20128;-31
2023/05/27 04:21:51;;;;;;;2.70;1.58;;;19.30;64.90;;;;;;5014221;28;20129;-31
2023/05/27 04:24:18;;;;;;;2.92;1.70;;;18.60;72.30;;;;;;5014353;28;20053;-31
2023/05/27 04:26:45;;;;;;;3.33;1.65;;;19.00;73.30;;;;;;5014193;28;20136;-31
2023/05/27 04:29:12;;;;;;;3.10;1.60;;;17.90;72.00;;;;;;5014375;28;20577;-30
2023/05/27 04:31:40;;;;;;;3.05;1.75;;;19.10;73.30;;;;;;5014358;28;20137;-31
2023/05/27 04:34:07;;;;;;;2.95;1.67;;;;;;;;;;5014013;28;20050;-31
2023/05/27 04:36:34;;;;;;;3.25;1.65;;;18.90;70.20;;;;;;5013593;28;20048;-31
2023/05/27 04:39:02;;;;;;;3.03;1.83;;;18.70;72.50;;;;;;5013154;28;20104;-31
2023/05/27 04:41:29;;;;;;;2.45;1.48;;;18.90;72.20;;;;;;5013972;28;20113;-31
2023/05/27 04:43:58;;;;;;;2.20;1.40;;;;;;;;;;5013921;28;20053;-31
2023/05/27 04:46:26;;;;;;;3.17;1.63;;;19.90;56.30;;;;;;5013797;28;20054;-31
2023/05/27 04:48:54;;;;;;;3.45;1.85;;;19.20;72.70;;;;;;5014026;28;20112;-31
2023/05/27 04:51:21;;;;;;;3.15;1.80;;;;;;;;;;5014085;28;20050;-31
2023/05/27 04:53:48;;;;;;;3.72;1.95;;;;;;;;;;5013681;28;20141;-32
2023/05/27 04:56:17;;;;;;;3.15;1.70;;;18.50;72.90;;;;;;5013453;28;20065;-31
2023/05/27 04:58:46;;;;;;;2.80;1.50;;;;;;;;;;5013722;28;20100;-31
2023/05/27 05:01:17;;;;;;;2.20;1.45;;;19.00;66.90;;;;;;5014040;28;20054;-31
2023/05/27 05:03:51;;;;;;;3.75;1.88;;;19.20;72.40;;;;;;5011042;28;20081;-31
2023/05/27 05:06:22;;;;;;;;;;;19.00;54.50;;;;;;5005071;28;20441;-32
2023/05/27 05:08:49;;;;;;;3.25;1.70;;;;;;;;;;5010827;28;20012;-31
2023/05/27 05:11:16;;;;;;;3.25;1.95;;;19.10;72.70;;;;;;5012839;28;20462;-31
2023/05/27 05:13:43;;;;;;;3.63;2.22;;;;;;;;;;5013638;28;20129;-31
2023/05/27 05:16:10;;;;;;;4.03;1.90;;;19.10;72.80;;;;;;5013617;28;20050;-31
2023/05/27 05:18:37;;;;;;;3.63;2.13;;;;;;;;;;5013606;28;20057;-31
2023/05/27 05:21:04;;;;;;;3.75;1.67;;;19.10;72.60;;;;;;5013335;28;20132;-31
2023/05/27 05:23:32;;;;;;;3.83;1.90;;;18.80;73.20;;;;;;5013140;28;20128;-31
2023/05/27 05:26:05;;;;;;;2.97;1.50;;;19.20;72.50;;;;;;5013435;28;20133;-30
2023/05/27 05:28:33;;;;;;;4.15;1.60;;;18.80;72.30;;;;;;5013763;28;20072;-30
2023/05/27 05:31:00;;;;;;;3.42;1.65;;;19.00;72.50;;;;;;5013167;28;20133;-31
2023/05/27 05:33:26;;;;;;;3.47;1.77;;;18.80;60.70;;;;;;5013122;28;20125;-31
2023/05/27 05:35:54;;;;;;;3.15;1.70;;;;;;;;;;5012781;28;20050;-32
2023/05/27 05:38:20;;;;;;;3.85;1.90;;;19.10;73.10;;;;;;5012618;28;20117;-31
2023/05/27 05:40:51;;;;;;;5.00;1.63;;;19.10;54.40;;;;;;5013243;28;20083;-32
2023/05/27 05:43:19;;;;;;;1.98;1.48;;;;;;;;;;5012988;28;20061;-31
2023/05/27 05:45:46;;;;;;;3.05;1.60;;;;;;;;;;5012899;28;20524;-32
2023/05/27 05:48:12;;;;;;;2.72;1.83;;;19.50;72.90;;;;;;5013014;28;20479;-31
2023/05/27 05:50:39;;;;;;;3.03;1.75;;;19.10;72.40;;;;;;5012563;28;20046;-31
2023/05/27 05:53:06;;;;;;;3.95;1.67;;;;;;;;;;5011880;28;20484;-31
2023/05/27 05:55:33;;;;;;;4.93;1.80;;;19.00;72.20;;;;;;5013035;28;20406;-31
2023/05/27 05:58:01;;;;;;;4.93;1.80;;;19.40;72.90;;;;;;5012986;28;20133;-31
2023/05/27 06:00:28;;;;;;;3.60;2.10;;;19.40;72.80;;;;;;5012798;28;20046;-31
2023/05/27 06:02:55;;;;;;;5.28;1.90;;;19.10;72.50;;;;;;5012753;28;20125;-31
2023/05/27 06:05:22;;;;;;;4.93;2.00;;;19.00;62.20;;;;;;5011953;28;20060;-31
2023/05/27 06:07:49;;;;;;;3.90;1.90;;;;;;;;;;5011339;28;20500;-31
2023/05/27 06:10:16;;;;;;;4.05;1.92;;;19.80;72.90;;;;;;5012236;28;20487;-31
2023/05/27 06:12:43;;;;;;;4.03;1.80;;;18.80;72.70;;;;;;5012541;28;20124;-31
2023/05/27 06:15:12;;;;;;;3.70;1.88;;;19.50;72.30;;;;;;5012473;28;20129;-31
2023/05/27 06:17:39;;;;;;;4.00;1.83;;;;;;;;;;5012534;28;20049;-32
2023/05/27 06:20:07;;;;;;;4.45;1.63;;;19.60;72.30;;;;;;5012091;28;20506;-31
2023/05/27 06:22:34;;;;;;;3.03;1.75;;;19.10;72.00;;;;;;5012172;28;20128;-31
2023/05/27 06:25:00;;;;;;;3.55;1.70;;;18.80;71.00;;;;;;5012541;28;20128;-31
2023/05/27 06:27:27;;;;;;;3.75;1.98;;;19.30;59.80;;;;;;5012690;28;20046;-31
2023/05/27 06:29:54;;;;;;;3.30;1.67;;;19.60;72.30;;;;;;5012283;28;20104;-31
2023/05/27 06:32:22;;;;;;;5.50;1.90;;;19.40;72.20;;;;;;5012131;28;20124;-30
2023/05/27 06:34:49;;;;;;;7.30;2.17;;;19.70;70.90;;;;;;5012421;28;20050;-31
2023/05/27 06:37:16;;;;;;;3.25;1.63;;;;;;;;;;5011689;28;20125;-31
2023/05/27 06:39:42;;;;;;;3.08;1.80;;;19.50;72.30;;;;;;5012377;28;20050;-31
2023/05/27 06:42:09;;;;;;;4.95;1.95;;;;;;;;;;5012183;28;20133;-31
2023/05/27 06:44:40;;;;;;;3.40;2.00;;;19.30;72.50;;;;;;5011705;28;20058;-31
2023/05/27 06:47:06;;;;;;;4.50;2.33;;;19.20;72.10;;;;;;4994354;28;20092;-31
2023/05/27 06:49:34;;;;;;;4.25;1.70;;;19.40;54.40;;;;;;5009007;28;20065;-31
2023/05/27 06:52:01;;;;;;;4.60;1.95;;;;;;;;;;5011852;28;20133;-33
2023/05/27 06:54:28;;;;;;;3.55;1.80;;;19.60;68.60;;;;;;5012003;28;20137;-31
2023/05/27 06:56:55;;;;;;;5.30;2.53;;;19.40;72.70;;;;;;5011967;28;20132;-31
2023/05/27 06:59:21;;;;;;;3.70;1.80;;;19.20;72.30;;;;;;5011865;28;20052;-31
2023/05/27 07:01:48;;;;;;;3.10;1.90;;;19.70;65.10;;;;;;5013836;28;20125;-30
2023/05/27 07:04:15;;;;;;;4.55;1.83;;;19.60;72.30;;;;;;5015316;28;20050;-31
2023/05/27 07:06:43;;;;;;;3.92;1.75;;;19.50;58.70;;;;;;5015675;28;20083;-31
2023/05/27 07:09:11;;;;;;;5.88;1.92;;;;;;;;;;5015830;28;20042;-32
2023/05/27 07:11:37;;;;;;;5.30;2.10;;;19.40;73.00;;;;;;5016173;28;20149;-31
2023/05/27 07:14:04;;;;;;;4.45;2.00;;;;;;;;;;5015682;28;20141;-32
2023/05/27 07:16:31;;;;;;;5.07;2.50;;;19.10;71.90;;;;;;5015767;28;20065;-31
2023/05/27 07:18:58;;;;;;;5.72;2.10;;;19.10;71.80;;;;;;5015583;28;20406;-31
2023/05/27 07:21:25;;;;;;;4.88;1.83;;;;;;;;;;5015662;28;20050;-31
2023/05/27 07:23:53;;;;;;;3.53;1.92;;;19.00;72.10;;;;;;5015720;28;20056;-31
2023/05/27 07:26:20;;;;;;;6.07;1.95;;;18.30;71.30;;;;;;5015547;28;20054;-31
2023/05/27 07:28:46;;;;;;;4.20;1.73;;;20.30;54.30;;;;;;5015687;28;20056;-31
2023/05/27 07:31:13;;;;;;;5.57;2.00;;;19.00;60.00;;;;;;5015504;28;20056;-31
2023/05/27 07:33:40;;;;;;;3.95;1.80;;;19.10;72.40;;;;;;5015178;28;20141;-30
2023/05/27 07:36:07;;;;;;;3.95;1.73;;;;;;;;;;5014854;28;20050;-31
2023/05/27 07:38:34;;;;;;;4.13;1.80;;;19.50;71.70;;;;;;5015406;28;20507;-31
2023/05/27 07:41:02;;;;;;;4.57;1.90;;;19.20;53.60;;;;;;5015503;28;20100;-32
2023/05/27 07:43:29;;;;;;;4.78;2.08;;;;;;;;;;5015058;28;20088;-32
2023/05/27 07:45:56;;;;;;;3.85;1.90;;;19.50;71.50;;;;;;5015207;28;20053;-31
2023/05/27 07:48:23;;;;;;;3.00;1.80;;;19.20;71.50;;;;;;5014975;28;20048;-31
2023/05/27 07:50:50;;;;;;;4.47;1.90;;;19.30;59.10;;;;;;5015523;28;20132;-31
2023/05/27 07:53:16;;;;;;;4.65;1.88;;;19.50;71.30;;;;;;5014932;28;20133;-31
2023/05/27 07:55:43;;;;;;;4.93;1.90;;;19.80;72.20;;;;;;5014947;28;20053;-31
2023/05/27 07:58:11;;;;;;;4.22;1.92;;;19.40;53.70;;;;;;5014872;28;20158;-31
2023/05/27 08:00:38;;;;;;;4.78;1.70;;;;;;;;;;5015429;28;20046;-31
2023/05/27 08:03:05;;;;;;;4.63;2.10;;;19.20;70.90;;;;;;5014620;28;20053;-31
2023/05/27 08:05:33;;;;;;;4.38;1.88;;;;;;;;;;5014979;28;20400;-32
2023/05/27 08:08:00;;;;;;;3.35;1.88;;;;;;;;;;5014742;28;20060;-31
2023/05/27 08:10:27;;;;;;;4.05;1.90;;;19.80;71.60;;;;;;5014822;28;20494;-31
2023/05/27 08:12:53;;;;;;;3.70;2.15;;;20.20;72.00;;;;;;5014592;28;20469;-31
2023/05/27 08:15:21;;;;;;;4.70;1.80;;;20.60;71.90;;;;;;5014762;28;20053;-31
2023/05/27 08:17:48;;;;;;;5.93;2.00;;;19.60;71.70;;;;;;5014732;28;20157;-31
2023/05/27 08:20:15;;;;;;;3.35;1.50;;;;;;;;;;5014348;28;20133;-34
2023/05/27 08:22:42;;;;;;;4.10;1.73;;;20.40;72.10;;;;;;5013835;28;20052;-31
2023/05/27 08:25:09;;;;;;;3.75;1.83;;;19.40;54.40;;;;;;5014404;28;20082;-31
2023/05/27 08:27:45;;;;;;;3.53;1.80;;;19.70;53.40;;;;;;5014866;28;20132;-31
2023/05/27 08:30:12;;;;;;;4.47;2.00;;;20.20;71.50;;;;;;5014587;28;20050;-31
2023/05/27 08:32:41;;;;;;;3.17;1.60;;;19.70;53.40;;;;;;5013644;28;20050;-33
2023/05/27 08:35:08;;;;;;;4.20;1.80;;;19.70;53.30;;;;;;5013104;28;20046;-31
2023/05/27 08:37:35;;;;;;;2.70;1.75;;;;;;;;;;5013561;28;20565;-33
2023/05/27 08:40:04;;;;;;;3.88;1.90;;;20.10;71.80;;;;;;5014479;28;20042;-31
2023/05/27 08:42:31;;;;;;;3.25;1.80;;;;;;;;;;5014258;28;20057;-33
2023/05/27 08:44:58;;;;;;;3.33;1.65;;;;;;;;;;5014034;28;20052;-31
2023/05/27 08:47:26;;;;;;;2.85;1.65;;;20.00;71.10;;;;;;5013774;28;20045;-31
2023/05/27 08:49:54;;;;;;;3.72;1.58;;;20.10;71.10;;;;;;5014144;28;20048;-31
2023/05/27 08:52:21;;;;;;;2.58;1.50;;;20.40;71.60;;;;;;5013808;28;20057;-31
2023/05/27 08:54:48;;;;;;;4.32;1.90;;;;;;;;;;5014213;28;20150;-33
2023/05/27 08:57:15;;;;;;;2.65;1.50;;;20.50;71.50;;;;;;5013895;28;20426;-31
2023/05/27 08:59:42;;;;;;;3.92;1.83;;;;;;;;;;5014046;28;20054;-33
2023/05/27 09:02:11;;;;;;;2.67;1.60;;;19.80;71.10;;;;;;5013610;28;20128;-31
2023/05/27 09:04:38;;;;;;;2.83;1.70;;;19.50;59.30;;;;;;5013808;28;20050;-31
2023/05/27 09:07:06;;;;;;;4.93;1.98;;;18.80;70.10;;;;;;5013801;28;20136;-33
2023/05/27 09:09:33;;;;;;;4.50;1.60;;;20.00;71.10;;;;;;5013914;28;20041;-33
2023/05/27 09:12:00;;;;;;;5.07;1.98;;;19.70;70.50;;;;;;5013784;28;20052;-34
2023/05/27 09:14:28;;;;;;;3.65;1.67;;;20.80;71.10;;;;;;5013706;28;20069;-34
2023/05/27 09:16:55;;;;;;;3.25;1.75;;;19.10;70.60;;;;;;5012944;28;20560;-33
2023/05/27 09:19:21;;;;;;;3.83;1.80;;;20.00;70.80;;;;;;5013166;28;20050;-34
2023/05/27 09:21:49;;;;;;;2.97;1.80;;;20.00;52.80;;;;;;5014147;28;20133;-32
2023/05/27 09:24:18;;;;;;;3.08;1.73;;;20.10;52.80;;;;;;5012082;28;20140;-30
2023/05/27 09:26:45;;;;;;;4.07;2.13;;;;;;;;;;5013468;28;20052;-30
2023/05/27 09:29:11;;;;;;;3.30;1.70;;;19.90;70.30;;;;;;5012976;28;20046;-31
2023/05/27 09:31:41;;;;;;;3.25;1.90;;;21.00;68.30;;;;;;5012822;28;20049;-31
2023/05/27 09:34:13;;;;;;;3.65;1.77;;;19.70;70.30;;;;;;5011950;28;20054;-31
2023/05/27 09:36:45;;;;;;;2.38;1.52;;;19.50;70.10;;;;;;5012839;28;20397;-31
2023/05/27 09:39:12;;;;;;;3.08;1.70;;;20.10;71.30;;;;;;5012881;28;20565;-31
2023/05/27 09:41:40;;;;;;;4.15;1.73;;;19.90;57.90;;;;;;5013559;28;20168;-31
2023/05/27 09:44:08;;;;;;;2.90;1.60;;;20.30;58.70;;;;;;5012946;28;20050;-30
2023/05/27 09:46:34;;;;;;;3.75;1.67;;;20.30;71.30;;;;;;5013066;28;20134;-31
2023/05/27 09:49:02;;;;;;;3.60;1.98;;;;;;;;;;5012974;28;20184;-30
2023/05/27 09:51:29;;;;;;;4.05;1.75;;;;;;;;;;5013168;28;20049;-31
2023/05/27 09:53:56;;;;;;;2.97;1.70;;;19.60;69.80;;;;;;5012808;28;20085;-31
2023/05/27 09:56:23;;;;;;;3.72;1.77;;;20.60;70.80;;;;;;5009743;28;20129;-33
2023/05/27 09:58:51;;;;;;;3.10;1.52;;;20.30;52.40;;;;;;5011174;28;20435;-31
2023/05/27 10:01:18;;;;;;;3.22;1.80;;;20.20;70.00;;;;;;5010503;28;20054;-31
2023/05/27 10:03:45;;;;;;;3.75;1.90;;;19.70;70.20;;;;;;5012062;28;20041;-29
2023/05/27 10:06:12;;;;;;;3.28;1.70;;;19.60;55.80;;;;;;5012197;28;20137;-29
2023/05/27 10:08:39;;;;;;;2.75;1.63;;;19.90;70.30;;;;;;5012502;28;20483;-29
2023/05/27 10:11:06;;;;;;;3.47;1.50;;;;;;;;;;5006081;28;20141;-31
2023/05/27 10:13:33;;;;;;;2.55;1.58;;;20.70;70.60;;;;;;4999049;28;20551;-29
2023/05/27 10:16:01;;;;;;;2.90;1.70;;;20.40;52.40;;;;;;4999875;28;20121;-32
2023/05/27 10:18:29;;;;;;;4.93;1.70;;;;;;;;;;5004290;28;20131;-31
2023/05/27 10:20:56;;;;;;;4.70;1.90;;;;;;;;;;4990480;28;20046;-30
2023/05/27 10:23:26;;;;;;;5.15;1.90;;;21.80;53.10;;;;;;4989086;28;20050;-30
2023/05/27 10:25:54;;;;;;;3.28;1.50;;;20.50;57.80;;;;;;4989211;28;20054;-29
2023/05/27 10:28:27;;;;;;;4.00;1.98;;;20.50;52.30;;;;;;4989265;28;20704;-32
2023/05/27 10:30:54;;;;;;;3.25;1.60;;;21.10;70.30;;;;;;4990785;28;20050;-29
2023/05/27 10:33:29;;;;;;;3.60;1.63;;;19.40;60.90;;;;;;5005310;28;20438;-29
2023/05/27 10:35:56;;;;;;;;;;;20.50;52.60;;;;;;5010962;28;20057;-29
2023/05/27 10:38:22;;;;;;;3.13;1.60;;;19.90;70.30;;;;;;5012318;28;19927;-29
2023/05/27 10:40:49;;;;;;;3.83;1.92;;;19.80;57.90;;;;;;5012306;28;20042;-29
2023/05/27 10:43:16;;;;;;;3.03;1.63;;;20.30;70.10;;;;;;5008842;28;20141;-29
2023/05/27 10:45:43;;;;;;;2.53;1.60;;;;;;;;;;5012052;28;20049;-30
2023/05/27 10:48:16;;;;;;;2.25;1.40;;;20.50;70.90;;;;;;5012367;28;20056;-29
2023/05/27 10:50:50;;;;;;;3.00;1.52;;;19.90;70.70;;;;;;5011869;28;20046;-29
2023/05/27 10:53:18;;;;;;;4.00;1.80;;;20.50;52.50;;;;;;5011930;28;20138;-31
2023/05/27 10:55:45;;;;;;;3.70;1.90;;;;;;;;;;5011950;28;20054;-30
2023/05/27 10:58:12;;;;;;;3.28;1.88;;;19.40;69.40;;;;;;5012150;28;20481;-29
2023/05/27 11:00:39;;;;;;;3.42;1.40;;;20.80;70.20;;;;;;5011658;28;20121;-31
2023/05/27 11:03:06;;;;;;;3.50;1.80;;;20.30;56.90;;;;;;5012033;28;20558;-31
2023/05/27 11:05:34;;;;;;;4.10;1.85;;;;;;;;;;5012035;28;20545;-30
2023/05/27 11:08:05;;;;;;;2.58;1.50;;;20.50;58.40;;;;;;5012049;28;20054;-31
2023/05/27 11:10:32;;;;;;;2.10;1.50;;;20.30;59.60;;;;;;5012013;28;20046;-31
2023/05/27 11:12:59;;;;;;;3.95;2.08;;;21.30;67.90;;;;;;5011805;28;20487;-31
2023/05/27 11:15:26;;;;;;;2.75;1.73;;;20.70;70.60;;;;;;5011595;28;20050;-31
2023/05/27 11:17:53;;;;;;;2.55;1.70;;;20.60;70.50;;;;;;5011650;28;20046;-31
2023/05/27 11:20:20;;;;;;;3.00;1.40;;;20.90;55.00;;;;;;4994484;28;20424;-31
2023/05/27 11:22:51;;;;;;;3.10;1.50;;;20.80;70.60;;;;;;5011706;28;20054;-31
2023/05/27 11:25:19;;;;;;;5.35;1.80;;;19.60;69.60;;;;;;5011956;28;20077;-31
2023/05/27 11:27:45;;;;;;;3.65;1.90;;;20.40;71.00;;;;;;5011955;28;20418;-31
2023/05/27 11:30:13;;;;;;;4.13;1.90;;;20.60;52.60;;;;;;5011386;28;20049;-30
2023/05/27 11:32:41;;;;;;;3.28;1.60;;;20.60;52.60;;;;;;5011418;28;20045;-30
2023/05/27 11:35:14;;;;;;;5.07;1.80;;;20.30;70.00;;;;;;5011965;28;20045;-31
2023/05/27 11:37:41;;;;;;;2.90;1.60;;;;;;;;;;5011420;28;20085;-30
2023/05/27 11:40:12;;;;;;;2.90;1.58;;;21.10;70.40;;;;;;5011804;28;20129;-31
2023/05/27 11:42:44;;;;;;;4.78;1.77;;;20.40;70.00;;;;;;5011303;28;20637;-31
2023/05/27 11:45:15;;;;;;;3.08;1.70;;;20.60;52.60;;;;;;5011556;28;20085;-30
2023/05/27 11:47:43;;;;;;;3.20;1.60;;;21.10;70.90;;;;;;5013192;28;20129;-31
2023/05/27 11:50:10;;;;;;;3.42;1.73;;;21.10;70.90;;;;;;5015373;28;20057;-31
2023/05/27 11:52:37;;;;;;;2.70;1.50;;;;;;;;;;5015272;28;20053;-30
2023/05/27 11:55:14;;;;;;;2.85;1.70;;;20.60;70.10;;;;;;5015199;28;20133;-31
2023/05/27 11:57:42;;;;;;;3.10;1.60;;;20.30;70.40;;;;;;5014927;28;20056;-31
2023/05/27 12:00:10;;;;;;;2.90;1.70;;;20.10;70.80;;;;;;5015268;28;20057;-31
2023/05/27 12:02:37;;;;;;;3.08;1.50;;;;;;;;;;5014852;28;20181;-30
2023/05/27 12:05:06;;;;;;;3.13;1.60;;;20.60;71.10;;;;;;5015072;28;20057;-31
2023/05/27 12:07:33;;;;;;;2.70;1.48;;;20.50;71.10;;;;;;5015057;28;20050;-31
2023/05/27 12:10:00;;;;;;;2.55;1.58;;;;;;;;;;5014595;28;20100;-30
2023/05/27 12:12:27;;;;;;;2.72;1.65;;;20.20;70.90;;;;;;5014143;28;20149;-31
2023/05/27 12:14:55;;;;;;;2.65;1.48;;;20.70;52.80;;;;;;5014692;28;20136;-30
2023/05/27 12:17:22;;;;;;;2.22;1.48;;;;;;;;;;5014695;28;20064;-30
2023/05/27 12:19:49;;;;;;;2.50;1.50;;;21.80;70.90;;;;;;5014675;28;20056;-31
2023/05/27 12:22:16;;;;;;;1.88;1.40;;;;;;;;;;5014224;28;20593;-30
2023/05/27 12:24:43;;;;;;;2.78;1.60;;;;;;;;;;5014483;28;20499;-31
2023/05/27 12:27:10;;;;;;;3.80;1.55;;;;;;;;;;5014083;28;20077;-30
2023/05/27 12:29:37;;;;;;;2.92;1.70;;;20.30;70.30;;;;;;5014361;28;20056;-31
2023/05/27 12:32:05;;;;;;;3.78;1.63;;;20.70;52.90;;;;;;5014194;28;20562;-31
2023/05/27 12:34:32;;;;;;;2.38;1.58;;;;;;;;;;5013839;28;20097;-30
2023/05/27 12:36:59;;;;;;;4.03;1.85;;;20.50;71.00;;;;;;5013670;28;20061;-31
2023/05/27 12:39:27;;;;;;;3.08;1.70;;;;;;;;;;5013944;28;20046;-29
2023/05/27 12:41:53;;;;;;;2.92;1.50;;;21.80;70.90;;;;;;5013838;28;20042;-31
2023/05/27 12:44:20;;;;;;;2.85;1.67;;;20.50;71.10;;;;;;5013918;28;20187;-31
2023/05/27 12:46:47;;;;;;;4.28;1.75;;;20.70;55.60;;;;;;5014196;28;20133;-31
2023/05/27 12:49:15;;;;;;;3.83;1.60;;;20.10;70.10;;;;;;5013576;28;20566;-31
2023/05/27 12:51:42;;;;;;;4.95;1.67;;;20.80;70.50;;;;;;5013937;28;20133;-31
2023/05/27 12:54:09;;;;;;;2.90;1.60;;;;;;;;;;5014047;28;20057;-30
2023/05/27 12:56:36;;;;;;;2.92;1.73;;;20.00;70.60;;;;;;5014115;28;20052;-31
2023/05/27 12:59:02;;;;;;;2.42;1.60;;;21.00;71.40;;;;;;5005537;28;20050;-31
2023/05/27 13:01:30;;;;;;;3.22;1.70;;;21.50;59.00;;;;;;5003160;28;20046;-30
2023/05/27 13:03:57;;;;;;;2.78;1.50;;;21.50;71.90;;;;;;5003316;28;20408;-31
2023/05/27 13:06:25;;;;;;;3.22;1.63;;;20.80;65.10;;;;;;5004677;28;20121;-30
2023/05/27 13:08:51;;;;;;;3.13;1.40;;;20.20;65.50;;;;;;5009102;28;20045;-30
2023/05/27 13:11:18;;;;;;;4.10;1.98;;;20.40;70.70;;;;;;5013746;28;20072;-31